Time;durP1;ratioP1;P1;durP2;ratioP2;P2;SDS_P1;SDS_P2;PMS_P1;PMS_P2;Temp;Humidity;BMP_temperature;BMP_pressure;BME280_temperature;BME280_humidity;BME280_pressure;Samples;Min_cycle;Max_cycle;Signal;HPM_P1;HPM_P2
2023/11/29 00:02:08;;;;;;;;;58.00;45.75;;;;;6.87;66.95;100314.72;5096925;27;45375;-60
2023/11/29 00:04:34;;;;;;;;;59.25;43.25;;;;;6.82;66.88;100306.97;5080352;27;45307;-63
2023/11/29 00:06:59;;;;;;;;;58.00;45.50;;;;;6.82;66.78;100306.13;5095459;27;45502;-60
2023/11/29 00:09:25;;;;;;;;;55.00;42.67;;;;;6.78;67.03;100314.84;5094942;27;75576;-60
2023/11/29 00:11:51;;;;;;;;;55.50;42.25;;;;;6.76;67.40;100311.44;5090037;27;45259;-60
2023/11/29 00:14:17;;;;;;;;;58.50;43.00;;;;;6.73;67.31;100314.06;5080497;27;45265;-60
2023/11/29 00:16:42;;;;;;;;;62.00;45.50;;;;;6.72;67.50;100315.81;5080039;28;45376;-60
2023/11/29 00:19:07;;;;;;;;;53.33;38.00;;;;;6.69;67.54;100310.66;5100934;27;71991;-60
2023/11/29 00:21:40;;;;;;;;;64.25;46.75;;;;;6.68;67.52;100308.13;5076695;27;45434;-60
2023/11/29 00:24:05;;;;;;;;;60.50;45.50;;;;;6.64;67.64;100310.78;5100152;27;45431;-60
2023/11/29 00:26:30;;;;;;;;;62.75;45.50;;;;;6.62;67.68;100298.66;5101860;27;49339;-60
2023/11/29 00:28:56;;;;;;;;;62.00;47.33;;;;;6.56;67.80;100299.63;5097931;27;75272;-60
2023/11/29 00:31:21;;;;;;;;;63.00;47.75;;;;;6.56;67.83;100291.84;5098025;27;45222;-60
2023/11/29 00:33:46;;;;;;;;;51.75;41.50;;;;;6.55;67.86;100290.13;5098606;27;48219;-60
2023/11/29 00:36:12;;;;;;;;;62.67;46.00;;;;;6.53;67.97;100284.09;5085088;27;68990;-60
2023/11/29 00:38:37;;;;;;;;;62.50;47.50;;;;;6.52;67.99;100289.34;5098159;27;46467;-58
2023/11/29 00:41:02;;;;;;;;;60.00;44.33;;;;;6.49;67.99;100287.63;5076447;27;65412;-59
2023/11/29 00:43:28;;;;;;;;;55.67;43.00;;;;;6.46;68.00;100290.28;5091853;27;69414;-59
2023/11/29 00:45:53;;;;;;;;;55.00;42.75;;;;;6.45;68.23;100286.84;5074212;28;45227;-59
2023/11/29 00:48:18;;;;;;;;;59.00;44.67;;;;;6.43;68.20;100286.00;5100315;27;69543;-60
2023/11/29 00:50:44;;;;;;;;;59.75;44.25;;;;;6.43;68.09;100279.97;5078590;27;72923;-61
2023/11/29 00:53:09;;;;;;;;;61.33;43.00;;;;;6.42;68.34;100280.81;5091125;27;68218;-60
2023/11/29 00:55:34;;;;;;;;;54.33;41.33;;;;;6.43;68.26;100286.00;5100746;27;70682;-60
2023/11/29 00:57:59;;;;;;;;;58.50;42.75;;;;;6.42;68.24;100273.88;5082060;27;53644;-60
2023/11/29 01:00:25;;;;;;;;;52.33;40.33;;;;;6.37;68.07;100272.25;5099912;27;67208;-60
2023/11/29 01:02:50;;;;;;;;;45.25;38.50;;;;;6.36;68.29;100276.59;5100438;27;45454;-59
2023/11/29 01:05:15;;;;;;;;;42.00;36.00;;;;;6.36;68.32;100280.94;5100285;27;73104;-60
2023/11/29 01:07:41;;;;;;;;;49.75;38.00;;;;;6.33;68.52;100283.59;5089845;27;62279;-60
2023/11/29 01:10:06;;;;;;;;;50.25;35.50;;;;;6.30;68.53;100283.63;5084175;27;45481;-60
2023/11/29 01:12:32;;;;;;;;;45.00;35.00;;;;;6.31;68.58;100285.38;5098966;27;45463;-59
2023/11/29 01:14:57;;;;;;;;;35.25;30.50;;;;;6.29;68.67;100272.38;5089593;27;71703;-59
2023/11/29 01:17:22;;;;;;;;;36.25;31.75;;;;;6.29;68.70;100277.59;5084418;27;65805;-59
2023/11/29 01:19:48;;;;;;;;;36.33;33.33;;;;;6.29;68.78;100275.00;5091645;27;73307;-59
2023/11/29 01:22:13;;;;;;;;;39.25;32.25;;;;;6.29;68.91;100272.38;5093446;27;60120;-59
2023/11/29 01:24:38;;;;;;;;;36.67;30.67;;;;;6.29;68.80;100272.38;5094042;27;72787;-59
2023/11/29 01:27:04;;;;;;;;;43.50;35.00;;;;;6.32;68.87;100271.47;5099288;27;53198;-59
2023/11/29 01:29:29;;;;;;;;;45.00;35.75;;;;;6.38;68.86;100263.59;5094817;27;45336;-58
2023/11/29 01:31:54;;;;;;;;;42.00;32.75;;;;;6.42;68.88;100263.47;5090770;27;45452;-58
2023/11/29 01:34:20;;;;;;;;;43.50;31.50;;;;;6.45;68.84;100260.84;5100158;27;45352;-59
2023/11/29 01:36:46;;;;;;;;;34.67;30.33;;;;;6.49;68.92;100263.41;5091427;27;73945;-58
2023/11/29 01:39:14;;;;;;;;;47.25;33.75;;;;;6.52;68.95;100263.34;5090862;27;45805;-58
2023/11/29 01:41:42;;;;;;;;;25.75;15.75;;;;;6.56;68.67;100267.59;5088389;27;45480;-59
2023/11/29 01:44:08;;;;;;;;;35.50;29.25;;;;;6.59;68.86;100268.41;5091812;27;73220;-58
2023/11/29 01:46:34;;;;;;;;;40.00;32.00;;;;;6.62;68.89;100264.88;5098527;27;46045;-59
2023/11/29 01:48:59;;;;;;;;;35.75;27.25;;;;;6.66;68.72;100266.56;5089662;27;73149;-59
2023/11/29 01:51:24;;;;;;;;;31.00;26.00;;;;;6.69;68.82;100265.63;5080832;27;46336;-58
2023/11/29 01:53:50;;;;;;;;;28.50;25.00;;;;;6.73;68.79;100272.47;5064764;28;73247;-58
2023/11/29 01:56:16;;;;;;;;;24.75;21.50;;;;;6.77;68.77;100266.34;5079322;27;45915;-58
2023/11/29 01:58:42;;;;;;;;;29.50;21.00;;;;;6.82;68.64;100267.97;5090209;27;45417;-58
2023/11/29 02:01:07;;;;;;;;;25.00;22.50;;;;;6.86;68.74;100252.31;5095715;27;45518;-58
2023/11/29 02:03:32;;;;;;;;;30.75;26.00;;;;;6.91;68.62;100260.88;5087763;27;71282;-58
2023/11/29 02:05:58;;;;;;;;;32.00;26.25;;;;;6.96;68.59;100251.25;5093726;27;76576;-58
2023/11/29 02:08:24;;;;;;;;;29.25;24.75;;;;;6.99;68.40;100249.44;5073147;28;73126;-58
2023/11/29 02:10:50;;;;;;;;;33.50;27.00;;;;;7.02;68.39;100244.16;5079561;27;45410;-58
2023/11/29 02:13:16;;;;;;;;;30.25;22.25;;;;;7.05;68.24;100248.47;5081956;27;45655;-59
2023/11/29 02:15:42;;;;;;;;;28.25;23.50;;;;;7.05;68.24;100243.25;5095523;27;46796;-58
2023/11/29 02:18:08;;;;;;;;;27.50;24.00;;;;;7.07;68.51;100243.22;5092955;27;66414;-59
2023/11/29 02:20:34;;;;;;;;;25.25;23.00;;;;;7.10;68.17;100243.13;5098966;27;45516;-58
2023/11/29 02:23:03;;;;;;;;;24.00;21.50;;;;;7.09;68.05;100236.25;5086451;27;45539;-58
2023/11/29 02:25:29;;;;;;;;;25.00;22.25;;;;;7.11;68.20;100245.72;5080982;27;45534;-58
2023/11/29 02:27:54;;;;;;;;;26.00;21.00;;;;;7.14;68.13;100252.63;5093269;27;45361;-58
2023/11/29 02:30:19;;;;;;;;;22.75;17.75;;;;;7.16;68.08;100250.84;5094592;27;45368;-58
2023/11/29 02:32:45;;;;;;;;;20.25;18.75;;;;;7.16;68.15;100246.47;5074879;27;73118;-59
2023/11/29 02:35:10;;;;;;;;;26.50;20.25;;;;;7.17;67.96;100236.91;5078418;27;75078;-58
2023/11/29 02:37:36;;;;;;;;;24.00;21.00;;;;;7.21;68.21;100241.19;5089252;27;45406;-58
2023/11/29 02:40:02;;;;;;;;;23.50;20.25;;;;;7.22;67.92;100230.75;5073988;27;45418;-59
2023/11/29 02:42:27;;;;;;;;;25.00;20.25;;;;;7.27;67.89;100235.84;5087388;27;45528;-60
2023/11/29 02:44:53;;;;;;;;;24.25;19.00;;;;;7.28;67.74;100229.75;5098416;27;47046;-58
2023/11/29 02:47:18;;;;;;;;;20.25;20.25;;;;;7.31;68.02;100223.63;5082901;27;45363;-58
2023/11/29 02:49:43;;;;;;;;;21.25;16.00;;;;;7.34;67.80;100226.16;5095123;27;45200;-58
2023/11/29 02:52:09;;;;;;;;;24.75;20.00;;;;;7.33;67.85;100214.03;5098325;27;45200;-58
2023/11/29 02:54:34;;;;;;;;;21.50;17.00;;;;;7.36;67.90;100222.63;5093159;27;74575;-58
2023/11/29 02:56:59;;;;;;;;;22.25;18.00;;;;;7.33;67.87;100207.09;5089120;27;45418;-60
2023/11/29 02:59:25;;;;;;;;;23.50;17.50;;;;;7.40;67.82;100215.59;5097497;27;68137;-61
2023/11/29 03:01:50;;;;;;;;;17.00;15.00;;;;;7.40;67.91;100216.47;5090716;27;72941;-58
2023/11/29 03:04:15;;;;;;;;;23.50;15.00;;;;;7.43;67.66;100218.13;5093273;27;75663;-59
2023/11/29 03:06:41;;;;;;;;;16.50;15.00;;;;;7.44;67.61;100219.88;5093586;27;50850;-59
2023/11/29 03:09:07;;;;;;;;;17.75;14.50;;;;;7.46;67.78;100212.03;5096038;27;70323;-60
2023/11/29 03:11:32;;;;;;;;;15.25;14.00;;;;;7.49;67.59;100209.31;5090193;27;45356;-59
2023/11/29 03:13:57;;;;;;;;;14.75;13.50;;;;;7.49;67.57;100202.41;5080973;27;74556;-59
2023/11/29 03:16:23;;;;;;;;;15.25;11.25;;;;;7.50;67.82;100198.88;5060023;28;73829;-59
2023/11/29 03:18:48;;;;;;;;;15.75;10.75;;;;;7.53;67.72;100197.97;5084144;27;45508;-59
2023/11/29 03:21:13;;;;;;;;;12.75;10.25;;;;;7.54;67.60;100194.47;5097011;27;45693;-61
2023/11/29 03:23:39;;;;;;;;;15.00;12.00;;;;;7.57;67.46;100197.00;5097513;27;46037;-59
2023/11/29 03:26:04;;;;;;;;;12.00;9.00;;;;;7.56;67.57;100190.06;5075488;27;71888;-59
2023/11/29 03:28:30;;;;;;;;;16.00;11.00;;;;;7.58;67.49;100189.16;5073090;27;45787;-59
2023/11/29 03:30:56;;;;;;;;;13.50;9.00;;;;;7.60;67.38;100191.72;5087144;27;62624;-59
2023/11/29 03:33:21;;;;;;;;;14.75;12.25;;;;;7.61;67.30;100185.59;5096844;27;47503;-59
2023/11/29 03:35:47;;;;;;;;;13.00;10.25;;;;;7.62;67.50;100183.88;5095278;27;45301;-59
2023/11/29 03:38:12;;;;;;;;;20.75;11.00;;;;;7.65;67.45;100181.19;5095396;27;65795;-59
2023/11/29 03:40:37;;;;;;;;;14.50;13.75;;;;;7.66;67.33;100178.53;5084125;27;46271;-60
2023/11/29 03:43:03;;;;;;;;;10.75;7.25;;;;;7.68;67.36;100178.50;5088294;27;76632;-59
2023/11/29 03:45:28;;;;;;;;;8.25;7.75;;;;;7.68;67.40;100178.50;5076212;27;73106;-59
2023/11/29 03:47:53;;;;;;;;;9.25;8.25;;;;;7.70;67.06;100174.13;5086525;27;45565;-59
2023/11/29 03:50:19;;;;;;;;;9.75;5.50;;;;;7.68;67.28;100160.28;5096460;27;66927;-59
2023/11/29 03:52:44;;;;;;;;;7.50;6.75;;;;;7.68;66.98;100160.28;5086679;27;74624;-59
2023/11/29 03:55:09;;;;;;;;;4.00;4.00;;;;;7.68;66.85;100155.06;5099729;27;70249;-59
2023/11/29 03:57:35;;;;;;;;;10.75;7.00;;;;;7.68;66.72;100161.13;5092187;27;45570;-59
2023/11/29 04:00:00;;;;;;;;;6.75;6.75;;;;;7.69;66.83;100159.41;5098985;27;64858;-59
2023/11/29 04:02:25;;;;;;;;;8.50;5.00;;;;;7.68;66.34;100157.69;5104960;27;75618;-60
2023/11/29 04:04:51;;;;;;;;;8.00;6.25;;;;;7.67;66.78;100156.00;5096482;27;58176;-60
2023/11/29 04:07:16;;;;;;;;;11.50;6.25;;;;;7.68;66.67;100160.28;5094146;27;45250;-60
2023/11/29 04:09:42;;;;;;;;;7.75;5.00;;;;;7.68;66.68;100162.88;5110589;27;45449;-60
2023/11/29 04:12:08;;;;;;;;;9.00;7.75;;;;;7.64;66.51;100154.28;5098927;27;46300;-60
2023/11/29 04:14:34;;;;;;;;;10.00;8.00;;;;;7.62;66.40;100150.88;5088177;27;45409;-60
2023/11/29 04:16:59;;;;;;;;;9.00;7.00;;;;;7.61;66.63;100154.34;5094150;27;55023;-60
2023/11/29 04:19:24;;;;;;;;;9.00;8.00;;;;;7.56;66.81;100141.47;5095901;27;53339;-59
2023/11/29 04:21:50;;;;;;;;;5.50;5.25;;;;;7.52;66.83;100136.38;5093391;27;70663;-59
2023/11/29 04:24:15;;;;;;;;;9.75;7.25;;;;;7.50;66.84;100130.34;5096679;27;57516;-59
2023/11/29 04:26:41;;;;;;;;;7.00;3.50;;;;;7.49;66.97;100136.44;5088126;27;45337;-59
2023/11/29 04:29:08;;;;;;;;;8.50;6.50;;;;;7.47;66.91;100136.50;5097272;27;45269;-59
2023/11/29 04:31:37;;;;;;;;;8.25;4.75;;;;;7.49;66.98;100134.69;5096025;27;46153;-59
2023/11/29 04:34:03;;;;;;;;;8.50;7.00;;;;;7.50;67.00;100135.53;5090082;27;45382;-60
2023/11/29 04:36:29;;;;;;;;;7.00;4.75;;;;;7.47;67.04;100130.41;5100064;27;45239;-60
2023/11/29 04:38:54;;;;;;;;;9.25;8.25;;;;;7.44;67.11;100130.47;5096035;27;73291;-59
2023/11/29 04:41:21;;;;;;;;;12.25;5.50;;;;;7.41;67.05;100129.66;5090659;27;45604;-60
2023/11/29 04:43:47;;;;;;;;;10.00;6.25;;;;;7.41;67.30;100131.41;5096973;27;45884;-60
2023/11/29 04:46:13;;;;;;;;;6.50;6.50;;;;;7.39;67.28;100130.59;5071803;27;45410;-60
2023/11/29 04:48:38;;;;;;;;;7.25;5.00;;;;;7.40;67.13;100132.28;5094969;27;45396;-59
2023/11/29 04:51:04;;;;;;;;;5.00;5.00;;;;;7.40;67.41;100127.97;5100768;27;45966;-59
2023/11/29 04:53:30;;;;;;;;;7.50;4.75;;;;;7.36;66.92;100134.13;5095913;27;45333;-60
2023/11/29 04:55:55;;;;;;;;;5.25;3.50;;;;;7.30;67.16;100123.84;5078942;27;45284;-60
2023/11/29 04:58:21;;;;;;;;;6.75;5.50;;;;;7.27;67.35;100116.13;5101271;27;45356;-60
2023/11/29 05:00:47;;;;;;;;;4.75;3.75;;;;;7.26;67.41;100116.16;5094360;27;46129;-60
2023/11/29 05:03:13;;;;;;;;;9.00;7.00;;;;;7.22;67.43;100105.84;5095514;27;45297;-60
2023/11/29 05:05:38;;;;;;;;;7.00;4.50;;;;;7.19;67.47;100098.09;5084415;27;45387;-59
2023/11/29 05:08:04;;;;;;;;;7.50;4.50;;;;;7.19;67.45;100111.09;5091309;27;45421;-60
2023/11/29 05:10:29;;;;;;;;;11.50;7.00;;;;;7.20;67.75;100104.13;5097898;27;75526;-59
2023/11/29 05:12:54;;;;;;;;;6.25;5.00;;;;;7.19;67.59;100105.06;5097105;27;58762;-59
2023/11/29 05:15:20;;;;;;;;;7.25;5.00;;;;;7.15;67.67;100106.00;5090898;27;67810;-59
2023/11/29 05:17:45;;;;;;;;;5.75;5.00;;;;;7.11;68.02;100101.75;5091415;27;71856;-59
2023/11/29 05:20:11;;;;;;;;;8.00;7.50;;;;;7.08;67.80;100094.00;5094423;27;73730;-59
2023/11/29 05:22:36;;;;;;;;;5.00;4.75;;;;;7.04;67.90;100098.44;5086972;27;65084;-60
2023/11/29 05:25:03;;;;;;;;;9.50;7.25;;;;;7.02;68.36;100095.88;5091070;27;45472;-59
2023/11/29 05:27:29;;;;;;;;;9.75;5.50;;;;;7.02;68.46;100093.25;5080380;27;45402;-60
2023/11/29 05:29:54;;;;;;;;;5.50;5.25;;;;;7.04;68.37;100091.47;5089562;27;46120;-60
2023/11/29 05:32:19;;;;;;;;;7.00;5.25;;;;;7.05;68.46;100087.16;5079774;27;73119;-60
2023/11/29 05:34:45;;;;;;;;;8.00;7.00;;;;;7.07;68.72;100090.56;5091800;27;67272;-60
2023/11/29 05:37:10;;;;;;;;;10.75;7.25;;;;;7.08;68.43;100100.06;5097438;27;45504;-60
2023/11/29 05:39:35;;;;;;;;;5.25;4.00;;;;;7.08;68.58;100094.88;5090563;27;65266;-60
2023/11/29 05:42:03;;;;;;;;;9.75;5.00;;;;;7.08;68.31;100091.41;5100109;27;45420;-60
2023/11/29 05:44:31;;;;;;;;;7.00;7.00;;;;;7.07;68.51;100087.97;5099707;27;45257;-61
2023/11/29 05:46:57;;;;;;;;;7.25;5.50;;;;;7.07;68.58;100098.38;5083656;27;45438;-61
2023/11/29 05:49:23;;;;;;;;;7.00;7.00;;;;;7.08;68.83;100094.00;5085173;27;49054;-61
2023/11/29 05:51:48;;;;;;;;;4.75;4.25;;;;;7.08;68.52;100091.41;5091050;27;71999;-61
2023/11/29 05:54:13;;;;;;;;;8.00;4.75;;;;;7.07;68.51;100085.38;5099588;27;68789;-60
2023/11/29 05:56:38;;;;;;;;;7.00;6.25;;;;;7.07;68.50;100087.13;5088009;27;71299;-59
2023/11/29 05:59:05;;;;;;;;;8.25;4.75;;;;;7.09;68.60;100093.97;5093785;27;75083;-59
2023/11/29 06:01:31;;;;;;;;;9.50;5.50;;;;;7.09;68.69;100096.59;5091637;27;45819;-59
2023/11/29 06:03:56;;;;;;;;;9.50;7.75;;;;;7.11;68.44;100093.94;5093542;27;45216;-59
2023/11/29 06:06:22;;;;;;;;;9.00;7.50;;;;;7.11;68.38;100097.41;5087731;27;63330;-59
2023/11/29 06:08:47;;;;;;;;;8.00;5.00;;;;;7.12;68.56;100088.72;5091657;27;45538;-60
2023/11/29 06:11:13;;;;;;;;;8.00;7.00;;;;;7.14;68.38;100088.69;5095821;27;45464;-60
2023/11/29 06:13:40;;;;;;;;;12.50;7.00;;;;;7.14;68.34;100102.53;5080548;27;46300;-59
2023/11/29 06:16:06;;;;;;;;;7.25;7.00;;;;;7.14;68.20;100092.13;5107056;27;45589;-60
2023/11/29 06:18:32;;;;;;;;;7.00;6.00;;;;;7.16;68.41;100084.31;5098234;27;46172;-60
2023/11/29 06:20:58;;;;;;;;;5.75;5.00;;;;;7.21;68.48;100100.66;5097653;27;73163;-61
2023/11/29 06:23:23;;;;;;;;;4.75;4.75;;;;;7.25;68.32;100102.28;5087604;27;45423;-60
2023/11/29 06:25:49;;;;;;;;;7.25;7.00;;;;;7.27;68.43;100099.66;5100195;27;45419;-60
2023/11/29 06:28:15;;;;;;;;;9.25;7.00;;;;;7.30;68.40;100105.63;5085412;27;45268;-60
2023/11/29 06:30:41;;;;;;;;;9.00;8.00;;;;;7.33;68.17;100105.56;5096351;27;45362;-61
2023/11/29 06:33:07;;;;;;;;;10.00;8.75;;;;;7.37;68.27;100099.41;5091071;27;45395;-60
2023/11/29 06:35:33;;;;;;;;;10.25;8.00;;;;;7.40;68.12;100101.06;5081478;27;45241;-61
2023/11/29 06:37:59;;;;;;;;;8.25;7.00;;;;;7.41;67.86;100088.00;5095654;27;45373;-61
2023/11/29 06:40:24;;;;;;;;;12.25;9.00;;;;;7.43;68.07;100090.56;5091921;27;45451;-60
2023/11/29 06:42:49;;;;;;;;;9.75;7.00;;;;;7.46;68.06;100087.06;5091284;27;67831;-61
2023/11/29 06:45:19;;;;;;;;;11.00;9.75;;;;;7.47;68.16;100092.25;5084409;27;45742;-60
2023/11/29 06:47:45;;;;;;;;;10.00;8.00;;;;;7.51;67.98;100101.66;5087173;27;46258;-59
2023/11/29 06:50:10;;;;;;;;;7.25;7.00;;;;;7.52;68.03;100086.91;5096880;27;45422;-59
2023/11/29 06:52:37;;;;;;;;;11.00;8.50;;;;;7.52;67.96;100087.75;5097081;27;45375;-59
2023/11/29 06:55:02;;;;;;;;;7.25;5.00;;;;;7.54;67.81;100085.09;5078073;27;45534;-60
2023/11/29 06:57:28;;;;;;;;;14.50;9.25;;;;;7.54;67.78;100082.50;5076066;27;47923;-59
2023/11/29 06:59:53;;;;;;;;;9.25;8.00;;;;;7.56;67.77;100085.91;5094986;27;66763;-59
2023/11/29 07:02:19;;;;;;;;;16.25;9.00;;;;;7.56;67.88;100083.31;5092613;27;45350;-60
2023/11/29 07:04:44;;;;;;;;;7.00;6.50;;;;;7.57;67.75;100077.22;5092415;27;45533;-60
2023/11/29 07:07:10;;;;;;;;;10.00;7.50;;;;;7.59;67.69;100078.88;5095771;27;75857;-60
2023/11/29 07:09:36;;;;;;;;;14.50;7.00;;;;;7.59;67.72;100076.28;5094326;27;45378;-60
2023/11/29 07:12:01;;;;;;;;;9.00;9.00;;;;;7.60;67.54;100072.78;5086740;27;45462;-61
2023/11/29 07:14:27;;;;;;;;;20.00;11.50;;;;;7.57;67.85;100069.41;5094858;27;64730;-59
2023/11/29 07:16:52;;;;;;;;;20.50;14.50;;;;;7.55;67.56;100072.06;5070365;27;45445;-59
2023/11/29 07:19:18;;;;;;;;;20.75;15.75;;;;;7.53;67.83;100073.00;5087636;27;45264;-61
2023/11/29 07:21:43;;;;;;;;;18.50;14.75;;;;;7.52;67.93;100074.72;5091519;27;45335;-62
2023/11/29 07:24:09;;;;;;;;;23.00;16.00;;;;;7.51;67.93;100069.59;5096497;27;73189;-59
2023/11/29 07:26:34;;;;;;;;;16.00;12.50;;;;;7.50;67.93;100066.09;5081168;27;45985;-60
2023/11/29 07:29:00;;;;;;;;;19.25;12.75;;;;;7.51;67.91;100066.97;5092356;27;73390;-59
2023/11/29 07:31:25;;;;;;;;;14.75;11.75;;;;;7.54;68.03;100077.28;5101007;27;45424;-57
2023/11/29 07:33:51;;;;;;;;;20.00;16.25;;;;;7.54;68.03;100074.69;5095237;27;75120;-60
2023/11/29 07:36:17;;;;;;;;;15.75;14.00;;;;;7.55;67.96;100073.81;5096610;27;46876;-60
2023/11/29 07:38:42;;;;;;;;;21.25;17.75;;;;;7.55;68.09;100072.06;5087334;27;46122;-58
2023/11/29 07:41:09;;;;;;;;;26.75;18.75;;;;;7.55;68.07;100077.25;5091697;27;45464;-59
2023/11/29 07:43:34;;;;;;;;;15.50;12.75;;;;;7.59;68.12;100076.28;5080623;27;45526;-59
2023/11/29 07:46:00;;;;;;;;;21.00;14.00;;;;;7.58;67.87;100074.59;5098832;27;46039;-60
2023/11/29 07:48:25;;;;;;;;;18.75;15.25;;;;;7.58;68.02;100077.19;5081884;27;45675;-59
2023/11/29 07:50:51;;;;;;;;;21.75;18.00;;;;;7.62;68.01;100079.72;5099370;27;46261;-58
2023/11/29 07:53:17;;;;;;;;;17.25;15.50;;;;;7.64;68.10;100081.38;5100656;27;45378;-58
2023/11/29 07:55:42;;;;;;;;;15.25;14.25;;;;;7.64;67.87;100083.97;5095482;27;45415;-59
2023/11/29 07:58:07;;;;;;;;;20.75;16.75;;;;;7.65;67.90;100080.50;5086680;27;72927;-62
2023/11/29 08:00:33;;;;;;;;;15.00;15.00;;;;;7.69;68.03;100081.28;5064839;27;68577;-58
2023/11/29 08:02:59;;;;;;;;;15.00;14.75;;;;;7.72;67.90;100081.16;5076522;27;45367;-58
2023/11/29 08:05:27;;;;;;;;;17.50;11.25;;;;;7.75;67.89;100088.91;5095262;27;46772;-58
2023/11/29 08:07:56;;;;;;;;;12.00;10.25;;;;;7.79;67.94;100080.13;5100248;27;45279;-58
2023/11/29 08:10:22;;;;;;;;;12.75;10.25;;;;;7.83;67.63;100086.13;5096456;27;45435;-60
2023/11/29 08:12:47;;;;;;;;;15.25;12.25;;;;;7.87;67.62;100083.38;5053562;28;45613;-59
2023/11/29 08:15:13;;;;;;;;;12.00;10.00;;;;;7.90;67.49;100083.31;5097938;27;46134;-60
2023/11/29 08:17:38;;;;;;;;;13.75;10.75;;;;;7.93;67.29;100075.44;5084328;27;45415;-59
2023/11/29 08:20:05;;;;;;;;;18.75;10.75;;;;;7.96;67.54;100082.28;5095541;27;45333;-59
2023/11/29 08:22:32;;;;;;;;;12.50;9.75;;;;;7.98;67.03;100083.97;5094365;27;45485;-59
2023/11/29 08:24:58;;;;;;;;;13.25;9.50;;;;;7.99;67.16;100077.00;5097673;27;46244;-60
2023/11/29 08:27:24;;;;;;;;;15.75;9.75;;;;;8.02;67.09;100081.25;5098896;27;45536;-59
2023/11/29 08:29:49;;;;;;;;;15.50;9.50;;;;;8.06;67.04;100080.31;5080784;27;45412;-64
2023/11/29 08:32:15;;;;;;;;;10.25;8.25;;;;;8.05;66.55;100076.81;5086508;27;45379;-59
2023/11/29 08:34:40;;;;;;;;;11.25;9.50;;;;;8.07;66.63;100076.78;5095273;27;70533;-59
2023/11/29 08:37:06;;;;;;;;;13.50;8.00;;;;;8.08;66.55;100076.75;5093658;27;45881;-59
2023/11/29 08:39:31;;;;;;;;;14.50;10.25;;;;;8.09;66.68;100078.47;5095344;27;68294;-58
2023/11/29 08:41:57;;;;;;;;;10.25;9.25;;;;;8.10;66.55;100077.56;5082579;27;45509;-59
2023/11/29 08:44:22;;;;;;;;;14.00;10.00;;;;;8.14;66.63;100075.72;5082875;27;46239;-58
2023/11/29 08:46:48;;;;;;;;;13.50;11.00;;;;;8.17;66.58;100071.28;5090257;27;45238;-59
2023/11/29 08:49:13;;;;;;;;;13.50;10.00;;;;;8.22;66.86;100065.94;5069401;27;45307;-58
2023/11/29 08:51:38;;;;;;;;;14.00;11.50;;;;;8.28;66.71;100065.75;5063962;28;45532;-58
2023/11/29 08:54:05;;;;;;;;;11.00;9.75;;;;;8.33;66.57;100061.28;5082120;27;70775;-58
2023/11/29 08:56:30;;;;;;;;;19.25;12.75;;;;;8.38;66.46;100062.91;5094997;27;45316;-59
2023/11/29 08:58:56;;;;;;;;;16.00;10.00;;;;;8.41;66.42;100057.59;5094483;27;65891;-59
2023/11/29 09:01:21;;;;;;;;;11.00;10.00;;;;;8.46;66.50;100061.78;5094327;27;45468;-59
2023/11/29 09:03:48;;;;;;;;;77.25;57.00;;;;;8.50;66.31;100062.59;5105624;27;46267;-59
2023/11/29 09:06:13;;;;;;;;;31.25;27.50;;;;;8.56;66.03;100070.22;5100071;27;45303;-59
2023/11/29 09:08:39;;;;;;;;;35.75;29.50;;;;;8.61;66.33;100065.72;5082694;27;67480;-59
2023/11/29 09:11:04;;;;;;;;;19.25;16.00;;;;;8.67;66.18;100060.31;5104484;27;45614;-59
2023/11/29 09:13:29;;;;;;;;;12.75;12.00;;;;;8.74;65.76;100061.84;5082096;27;51403;-60
2023/11/29 09:15:58;;;;;;;;;13.00;11.50;;;;;8.82;65.97;100056.41;5086151;27;45515;-59
2023/11/29 09:18:23;;;;;;;;;12.50;11.00;;;;;8.87;65.50;100059.72;5082672;27;45374;-59
2023/11/29 09:20:48;;;;;;;;;15.25;10.00;;;;;8.88;64.69;100063.19;5080667;27;73025;-60
2023/11/29 09:23:14;;;;;;;;;10.25;10.00;;;;;8.87;65.06;100062.34;5101194;27;52853;-57
2023/11/29 09:25:39;;;;;;;;;16.00;10.25;;;;;8.86;64.91;100063.22;5096442;27;57541;-58
2023/11/29 09:28:06;;;;;;;;;11.00;11.00;;;;;8.82;65.41;100061.63;5082075;27;69318;-58
2023/11/29 09:30:34;;;;;;;;;14.00;11.50;;;;;8.81;65.00;100054.69;5082338;27;45417;-58
2023/11/29 09:33:00;;;;;;;;;12.25;10.50;;;;;8.80;65.03;100068.66;5089162;27;75702;-59
2023/11/29 09:35:25;;;;;;;;;13.00;9.25;;;;;8.79;65.12;100058.25;5094718;27;45316;-58
2023/11/29 09:37:51;;;;;;;;;14.75;12.00;;;;;8.81;65.17;100059.91;5065992;28;45427;-60
2023/11/29 09:40:16;;;;;;;;;12.00;10.00;;;;;8.86;65.16;100059.78;5088962;27;59605;-59
2023/11/29 09:42:43;;;;;;;;;14.00;9.00;;;;;8.89;64.79;100062.28;5099152;27;45306;-59
2023/11/29 09:45:20;;;;;;;;;10.50;9.00;;;;;8.95;64.71;100056.88;5083059;27;46412;-59
2023/11/29 09:47:45;;;;;;;;;10.00;10.00;;;;;8.98;64.62;100056.78;5088963;27;45446;-59
2023/11/29 09:50:12;;;;;;;;;19.25;11.75;;;;;8.98;64.37;100054.16;5100951;27;45189;-59
2023/11/29 09:52:37;;;;;;;;;13.50;11.00;;;;;8.97;64.29;100057.66;5083429;27;50596;-59
2023/11/29 09:55:03;;;;;;;;;13.75;10.00;;;;;8.98;64.45;100059.38;5089248;27;72952;-59
2023/11/29 09:57:29;;;;;;;;;12.50;10.75;;;;;9.01;64.55;100055.81;5101160;27;45318;-59
2023/11/29 09:59:55;;;;;;;;;12.25;12.00;;;;;9.07;64.33;100048.66;5076512;28;45462;-59
2023/11/29 10:02:21;;;;;;;;;14.00;11.00;;;;;9.14;64.21;100049.31;5083446;27;46034;-59
2023/11/29 10:04:47;;;;;;;;;12.75;11.00;;;;;9.18;63.67;100048.31;5090082;27;45385;-59
2023/11/29 10:07:12;;;;;;;;;12.75;9.75;;;;;9.23;63.87;100045.56;5101152;27;45430;-59
2023/11/29 10:09:38;;;;;;;;;10.00;9.75;;;;;9.25;63.72;100041.97;5100277;27;45327;-60
2023/11/29 10:12:07;;;;;;;;;12.00;10.75;;;;;9.28;63.68;100043.66;5084386;27;45460;-59
2023/11/29 10:14:33;;;;;;;;;11.50;10.25;;;;;9.34;63.38;100035.59;5083106;27;45700;-59
2023/11/29 10:16:58;;;;;;;;;13.00;10.00;;;;;9.36;63.29;100028.56;5064998;27;45264;-59
2023/11/29 10:19:23;;;;;;;;;12.25;10.25;;;;;9.45;63.19;100036.09;5067383;28;45284;-59
2023/11/29 10:21:52;;;;;;;;;12.75;10.50;;;;;9.50;63.25;100026.34;5084678;27;68876;-59
2023/11/29 10:24:26;;;;;;;;;16.00;12.25;;;;;9.62;62.92;100030.31;5098718;27;45891;-59
2023/11/29 10:26:52;;;;;;;;;12.25;12.00;;;;;9.69;62.98;100016.13;5086964;27;45493;-60
2023/11/29 10:29:17;;;;;;;;;13.00;10.75;;;;;9.76;62.55;100021.16;5099565;27;45261;-60
2023/11/29 10:31:43;;;;;;;;;12.25;11.75;;;;;9.80;62.22;100017.50;5098274;27;45465;-57
2023/11/29 10:34:11;;;;;;;;;14.75;12.00;;;;;9.80;61.83;100001.84;5104642;27;45161;-59
2023/11/29 10:36:39;;;;;;;;;11.25;10.50;;;;;9.88;61.94;100013.72;5100564;27;45256;-59
2023/11/29 10:39:11;;;;;;;;;21.50;13.00;;;;;9.94;61.55;99998.72;5071778;27;45511;-59
2023/11/29 10:41:43;;;;;;;;;10.25;9.00;;;;;9.95;61.30;99992.56;5079419;27;46326;-59
2023/11/29 10:44:10;;;;;;;;;12.25;11.25;;;;;9.94;61.17;99986.50;5058732;27;45489;-59
2023/11/29 10:46:36;;;;;;;;;12.25;10.25;;;;;9.95;61.53;99983.00;5069810;27;51009;-59
2023/11/29 10:49:25;;;;;;;;;10.50;10.00;;;;;10.00;61.12;99981.03;5098465;27;45534;-59
2023/11/29 10:51:50;;;;;;;;;13.75;10.50;;;;;10.04;61.01;99985.25;5076576;28;46371;-59
2023/11/29 10:54:17;;;;;;;;;17.75;10.25;;;;;10.03;60.83;99978.31;5076569;27;66303;-59
2023/11/29 10:56:43;;;;;;;;;13.25;11.00;;;;;10.03;60.93;99977.47;5076127;28;45445;-59
2023/11/29 10:59:33;;;;;;;;;14.25;11.00;;;;;10.05;60.96;99976.50;5067719;27;65454;-59
2023/11/29 11:01:59;;;;;;;;;14.00;10.75;;;;;10.05;60.74;99971.25;5077662;27;45283;-59
2023/11/29 11:04:31;;;;;;;;;14.75;10.50;;;;;10.08;60.31;99971.16;5102331;27;45400;-59
2023/11/29 11:06:57;;;;;;;;;7.50;6.75;;;;;10.08;60.89;99967.69;5068160;28;45462;-59
2023/11/29 11:09:40;;;;;;;;;15.50;10.00;;;;;10.11;60.67;99966.72;5054297;27;45355;-59
2023/11/29 11:12:06;;;;;;;;;14.25;12.25;;;;;10.19;60.75;99968.13;5091998;27;45284;-59
2023/11/29 11:14:38;;;;;;;;;15.50;12.00;;;;;10.23;60.72;99964.53;5103663;27;45418;-59
2023/11/29 11:17:06;;;;;;;;;20.25;13.00;;;;;10.26;60.59;99969.59;5085456;27;45391;-59